Accueil
METAR-TAF:

METAR-TAF

Aéroports :

Aéroport de Van Nuys

Van Nuys, Californie, États-Unis

latitude: 34-12-45N, longitude: 118-29-27W, altitude: 243 m

Observation

Le bulletin a été fait il y a 24 minutes, à 22:51 UTC
Vent 5 kt de sud-est
Température 18°C
Humidité 64%
Pression 1019 hPa
Visibilité: 16.1 km
Ciel clair

METAR: KVNY 222251Z 14005KT 10SM CLR 18/11 A3009 RMK AO2 SLP187 T01780106

Heure: 15:15 (23:15 UTC)

Prévision

Le bulletin a été fait il y a 5 heures et 49 minutes, à 17:26 UTC
Prévision valable du 22 à 18 UTC au 23 à 18 UTC
Vent 3 kt de direction variable
Visibilité: 10 km
Nuages fragmentés à une hauteur de 20000 ft
A partir de 22 à 2100 UTC
Vent 6 kt de sud-est
Visibilité: 10 km
Nuages épars à une hauteur de 20000 ft
A partir de 23 à 0200 UTC
Vent 6 kt de nord
Visibilité: 10 km
Nuages épars à une hauteur de 20000 ft

TAF: KVNY 221726Z 2218/2318 VRB03KT P6SM BKN200 FM222100 14006KT P6SM SCT200 FM230200 35006KT P6SM SCT200

Observations et prévisions météorologiques de plus de 4000 aéroports (messages METAR et TAF).

Les stations disponibles sont représentées par des disques jaunes et rouges sur la carte.

Passer la souris dessus pour voir le nom de la station.

Cliquer dessus pour voir les observations et prévisions météorologiques.

Pour changer de carte: cliquez sur les boutons verts avec une croix noire pour zoomer, sur le bouton vert avec un tiret pour effectuer un zoom arrière, ou sur les flèches vertes pour les cartes adjacentes.


METAR-TAF: